sensor_id;sensor_type;location;lat;lon;timestamp;temperature;humidity
38237;DHT22;50101;49.438;11.098;2023-11-21T00:01:26;19.30;61.60
38237;DHT22;50101;49.438;11.098;2023-11-21T00:03:52;19.30;61.60
38237;DHT22;50101;49.438;11.098;2023-11-21T00:06:21;19.30;61.60
38237;DHT22;50101;49.438;11.098;2023-11-21T00:08:48;19.30;61.60
38237;DHT22;50101;49.438;11.098;2023-11-21T00:11:15;19.30;61.60
38237;DHT22;50101;49.438;11.098;2023-11-21T00:13:41;19.30;61.60
38237;DHT22;50101;49.438;11.098;2023-11-21T00:16:08;19.30;61.60
38237;DHT22;50101;49.438;11.098;2023-11-21T00:18:35;18.40;60.70
38237;DHT22;50101;49.438;11.098;2023-11-21T00:21:02;19.30;61.00
38237;DHT22;50101;49.438;11.098;2023-11-21T00:23:30;19.30;61.60
38237;DHT22;50101;49.438;11.098;2023-11-21T00:25:56;19.30;61.60
38237;DHT22;50101;49.438;11.098;2023-11-21T00:28:23;19.30;61.60
38237;DHT22;50101;49.438;11.098;2023-11-21T00:30:51;19.30;61.60
38237;DHT22;50101;49.438;11.098;2023-11-21T00:33:18;19.30;61.60
38237;DHT22;50101;49.438;11.098;2023-11-21T00:35:45;19.30;61.60
38237;DHT22;50101;49.438;11.098;2023-11-21T00:38:11;19.30;61.60
38237;DHT22;50101;49.438;11.098;2023-11-21T00:40:38;19.30;61.60
38237;DHT22;50101;49.438;11.098;2023-11-21T00:43:05;19.30;61.60
38237;DHT22;50101;49.438;11.098;2023-11-21T00:45:32;19.30;61.60
38237;DHT22;50101;49.438;11.098;2023-11-21T00:47:59;19.30;61.60
38237;DHT22;50101;49.438;11.098;2023-11-21T00:50:25;19.30;61.60
38237;DHT22;50101;49.438;11.098;2023-11-21T00:52:52;19.30;61.60
38237;DHT22;50101;49.438;11.098;2023-11-21T00:55:19;19.30;61.60
38237;DHT22;50101;49.438;11.098;2023-11-21T00:57:46;19.30;61.60
38237;DHT22;50101;49.438;11.098;2023-11-21T01:00:13;19.30;61.60
38237;DHT22;50101;49.438;11.098;2023-11-21T01:02:46;19.30;62.40
38237;DHT22;50101;49.438;11.098;2023-11-21T01:05:14;19.30;61.70
38237;DHT22;50101;49.438;11.098;2023-11-21T01:07:41;19.20;61.50
38237;DHT22;50101;49.438;11.098;2023-11-21T01:10:08;19.30;61.00
38237;DHT22;50101;49.438;11.098;2023-11-21T01:12:37;19.20;61.60
38237;DHT22;50101;49.438;11.098;2023-11-21T01:15:05;19.20;61.60
38237;DHT22;50101;49.438;11.098;2023-11-21T01:17:35;19.20;61.60
38237;DHT22;50101;49.438;11.098;2023-11-21T01:20:03;19.20;61.60
38237;DHT22;50101;49.438;11.098;2023-11-21T01:22:33;19.20;60.90
38237;DHT22;50101;49.438;11.098;2023-11-21T01:24:59;19.20;61.60
38237;DHT22;50101;49.438;11.098;2023-11-21T01:27:26;19.20;61.50
38237;DHT22;50101;49.438;11.098;2023-11-21T01:29:53;19.20;61.60
38237;DHT22;50101;49.438;11.098;2023-11-21T01:32:20;19.20;61.50
38237;DHT22;50101;49.438;11.098;2023-11-21T01:34:47;19.20;61.60
38237;DHT22;50101;49.438;11.098;2023-11-21T01:37:14;19.20;61.60
38237;DHT22;50101;49.438;11.098;2023-11-21T01:39:41;19.20;61.60
38237;DHT22;50101;49.438;11.098;2023-11-21T01:42:08;19.20;61.60
38237;DHT22;50101;49.438;11.098;2023-11-21T01:44:34;19.20;61.70
38237;DHT22;50101;49.438;11.098;2023-11-21T01:47:02;19.20;61.60
38237;DHT22;50101;49.438;11.098;2023-11-21T01:49:35;19.20;61.70
38237;DHT22;50101;49.438;11.098;2023-11-21T01:52:02;19.20;61.70
38237;DHT22;50101;49.438;11.098;2023-11-21T01:54:30;19.20;61.70
38237;DHT22;50101;49.438;11.098;2023-11-21T01:57:00;19.20;61.70
38237;DHT22;50101;49.438;11.098;2023-11-21T01:59:37;19.20;61.70
38237;DHT22;50101;49.438;11.098;2023-11-21T02:02:05;19.20;61.10
38237;DHT22;50101;49.438;11.098;2023-11-21T02:04:36;19.20;61.70
38237;DHT22;50101;49.438;11.098;2023-11-21T02:07:03;19.20;61.70
38237;DHT22;50101;49.438;11.098;2023-11-21T02:09:33;19.20;61.70
38237;DHT22;50101;49.438;11.098;2023-11-21T02:12:01;19.20;61.70
38237;DHT22;50101;49.438;11.098;2023-11-21T02:14:28;19.20;61.70
38237;DHT22;50101;49.438;11.098;2023-11-21T02:16:55;19.20;61.70
38237;DHT22;50101;49.438;11.098;2023-11-21T02:19:24;19.20;61.70
38237;DHT22;50101;49.438;11.098;2023-11-21T02:21:53;19.20;61.10
38237;DHT22;50101;49.438;11.098;2023-11-21T02:24:20;19.20;61.70
38237;DHT22;50101;49.438;11.098;2023-11-21T02:26:49;19.20;61.70
38237;DHT22;50101;49.438;11.098;2023-11-21T02:29:22;19.20;61.70
38237;DHT22;50101;49.438;11.098;2023-11-21T02:31:52;19.20;61.70
38237;DHT22;50101;49.438;11.098;2023-11-21T02:34:18;19.20;61.70
38237;DHT22;50101;49.438;11.098;2023-11-21T02:36:45;19.20;61.80
38237;DHT22;50101;49.438;11.098;2023-11-21T02:39:12;19.20;62.20
38237;DHT22;50101;49.438;11.098;2023-11-21T02:41:40;19.20;61.70
38237;DHT22;50101;49.438;11.098;2023-11-21T02:44:06;19.20;61.70
38237;DHT22;50101;49.438;11.098;2023-11-21T02:46:37;19.20;61.80
38237;DHT22;50101;49.438;11.098;2023-11-21T02:49:04;19.20;61.70
38237;DHT22;50101;49.438;11.098;2023-11-21T02:51:33;19.20;61.80
38237;DHT22;50101;49.438;11.098;2023-11-21T02:54:00;19.20;61.80
38237;DHT22;50101;49.438;11.098;2023-11-21T02:56:29;19.20;61.80
38237;DHT22;50101;49.438;11.098;2023-11-21T02:58:56;19.10;61.70
38237;DHT22;50101;49.438;11.098;2023-11-21T03:01:23;19.10;61.70
38237;DHT22;50101;49.438;11.098;2023-11-21T03:03:50;19.10;61.70
38237;DHT22;50101;49.438;11.098;2023-11-21T03:06:18;19.20;61.80
38237;DHT22;50101;49.438;11.098;2023-11-21T03:08:46;19.10;61.70
38237;DHT22;50101;49.438;11.098;2023-11-21T03:11:13;19.10;61.70
38237;DHT22;50101;49.438;11.098;2023-11-21T03:13:43;19.10;61.70
38237;DHT22;50101;49.438;11.098;2023-11-21T03:16:10;19.10;61.70
38237;DHT22;50101;49.438;11.098;2023-11-21T03:18:38;19.10;61.70
38237;DHT22;50101;49.438;11.098;2023-11-21T03:21:06;19.10;61.70
38237;DHT22;50101;49.438;11.098;2023-11-21T03:23:36;19.10;61.80
38237;DHT22;50101;49.438;11.098;2023-11-21T03:26:03;19.10;61.70
38237;DHT22;50101;49.438;11.098;2023-11-21T03:28:30;19.20;61.90
38237;DHT22;50101;49.438;11.098;2023-11-21T03:30:57;19.10;61.10
38237;DHT22;50101;49.438;11.098;2023-11-21T03:33:23;19.10;61.70
38237;DHT22;50101;49.438;11.098;2023-11-21T03:35:50;19.10;61.70
38237;DHT22;50101;49.438;11.098;2023-11-21T03:38:17;19.10;61.70
38237;DHT22;50101;49.438;11.098;2023-11-21T03:40:43;19.10;61.70
38237;DHT22;50101;49.438;11.098;2023-11-21T03:43:10;19.10;61.70
38237;DHT22;50101;49.438;11.098;2023-11-21T03:45:37;19.10;61.70
38237;DHT22;50101;49.438;11.098;2023-11-21T03:48:04;19.10;61.70
38237;DHT22;50101;49.438;11.098;2023-11-21T03:50:31;19.10;61.70
38237;DHT22;50101;49.438;11.098;2023-11-21T03:52:58;19.10;61.70
38237;DHT22;50101;49.438;11.098;2023-11-21T03:55:25;19.10;61.80
38237;DHT22;50101;49.438;11.098;2023-11-21T03:57:52;19.10;61.70
38237;DHT22;50101;49.438;11.098;2023-11-21T04:00:19;19.10;61.70
38237;DHT22;50101;49.438;11.098;2023-11-21T04:02:48;19.10;61.80
38237;DHT22;50101;49.438;11.098;2023-11-21T04:05:17;19.10;61.80
38237;DHT22;50101;49.438;11.098;2023-11-21T04:07:44;19.10;61.70
38237;DHT22;50101;49.438;11.098;2023-11-21T04:10:11;19.10;61.70
38237;DHT22;50101;49.438;11.098;2023-11-21T04:12:40;19.10;61.70
38237;DHT22;50101;49.438;11.098;2023-11-21T04:15:07;19.10;61.70
38237;DHT22;50101;49.438;11.098;2023-11-21T04:17:35;19.10;61.80
38237;DHT22;50101;49.438;11.098;2023-11-21T04:20:04;19.10;61.80
38237;DHT22;50101;49.438;11.098;2023-11-21T04:22:41;19.10;61.80
38237;DHT22;50101;49.438;11.098;2023-11-21T04:25:12;19.10;61.80
38237;DHT22;50101;49.438;11.098;2023-11-21T04:27:40;19.10;61.80
38237;DHT22;50101;49.438;11.098;2023-11-21T04:30:07;19.10;61.80
38237;DHT22;50101;49.438;11.098;2023-11-21T04:32:34;19.10;61.80
38237;DHT22;50101;49.438;11.098;2023-11-21T04:35:01;19.10;61.80
38237;DHT22;50101;49.438;11.098;2023-11-21T04:37:28;19.10;61.90
38237;DHT22;50101;49.438;11.098;2023-11-21T04:39:54;19.00;61.70
38237;DHT22;50101;49.438;11.098;2023-11-21T04:42:21;19.00;61.10
38237;DHT22;50101;49.438;11.098;2023-11-21T04:44:49;19.10;61.90
38237;DHT22;50101;49.438;11.098;2023-11-21T04:47:15;20.00;62.80
38237;DHT22;50101;49.438;11.098;2023-11-21T04:49:42;19.00;61.80
38237;DHT22;50101;49.438;11.098;2023-11-21T04:52:13;19.10;62.00
38237;DHT22;50101;49.438;11.098;2023-11-21T04:54:40;19.10;61.90
38237;DHT22;50101;49.438;11.098;2023-11-21T04:57:07;19.10;61.90
38237;DHT22;50101;49.438;11.098;2023-11-21T04:59:34;19.00;61.90
38237;DHT22;50101;49.438;11.098;2023-11-21T05:02:01;19.00;61.90
38237;DHT22;50101;49.438;11.098;2023-11-21T05:04:28;19.00;61.90
38237;DHT22;50101;49.438;11.098;2023-11-21T05:06:55;19.00;61.80
38237;DHT22;50101;49.438;11.098;2023-11-21T05:09:21;19.00;61.80
38237;DHT22;50101;49.438;11.098;2023-11-21T05:11:48;19.10;62.00
38237;DHT22;50101;49.438;11.098;2023-11-21T05:14:15;19.00;61.80
38237;DHT22;50101;49.438;11.098;2023-11-21T05:16:42;19.10;61.90
38237;DHT22;50101;49.438;11.098;2023-11-21T05:19:09;19.00;61.80
38237;DHT22;50101;49.438;11.098;2023-11-21T05:21:35;19.00;61.80
38237;DHT22;50101;49.438;11.098;2023-11-21T05:24:02;19.00;61.80
38237;DHT22;50101;49.438;11.098;2023-11-21T05:26:29;19.10;61.90
38237;DHT22;50101;49.438;11.098;2023-11-21T05:28:56;19.10;61.90
38237;DHT22;50101;49.438;11.098;2023-11-21T05:31:23;19.00;61.10
38237;DHT22;50101;49.438;11.098;2023-11-21T05:33:49;19.10;62.60
38237;DHT22;50101;49.438;11.098;2023-11-21T05:36:16;19.00;61.70
38237;DHT22;50101;49.438;11.098;2023-11-21T05:38:43;19.10;61.80
38237;DHT22;50101;49.438;11.098;2023-11-21T05:41:10;19.10;61.90
38237;DHT22;50101;49.438;11.098;2023-11-21T05:43:39;19.10;62.00
38237;DHT22;50101;49.438;11.098;2023-11-21T05:46:07;19.10;62.10
38237;DHT22;50101;49.438;11.098;2023-11-21T05:48:34;19.10;62.00
38237;DHT22;50101;49.438;11.098;2023-11-21T05:51:05;19.10;62.10
38237;DHT22;50101;49.438;11.098;2023-11-21T05:53:32;19.10;62.10
38237;DHT22;50101;49.438;11.098;2023-11-21T05:55:59;19.10;62.10
38237;DHT22;50101;49.438;11.098;2023-11-21T05:58:26;19.10;62.10
38237;DHT22;50101;49.438;11.098;2023-11-21T06:00:52;19.10;62.10
38237;DHT22;50101;49.438;11.098;2023-11-21T06:03:19;19.10;62.10
38237;DHT22;50101;49.438;11.098;2023-11-21T06:05:46;19.10;62.10
38237;DHT22;50101;49.438;11.098;2023-11-21T06:08:12;19.10;62.10
38237;DHT22;50101;49.438;11.098;2023-11-21T06:10:39;19.10;62.10
38237;DHT22;50101;49.438;11.098;2023-11-21T06:13:06;19.10;62.10
38237;DHT22;50101;49.438;11.098;2023-11-21T06:15:34;19.10;62.10
38237;DHT22;50101;49.438;11.098;2023-11-21T06:18:01;19.10;62.00
38237;DHT22;50101;49.438;11.098;2023-11-21T06:20:27;19.10;61.40
38237;DHT22;50101;49.438;11.098;2023-11-21T06:22:54;19.10;62.00
38237;DHT22;50101;49.438;11.098;2023-11-21T06:25:21;19.10;62.00
38237;DHT22;50101;49.438;11.098;2023-11-21T06:27:49;19.10;61.90
38237;DHT22;50101;49.438;11.098;2023-11-21T06:30:17;19.10;61.90
38237;DHT22;50101;49.438;11.098;2023-11-21T06:32:46;19.10;61.80
38237;DHT22;50101;49.438;11.098;2023-11-21T06:35:14;19.20;61.90
38237;DHT22;50101;49.438;11.098;2023-11-21T06:37:42;19.20;61.90
38237;DHT22;50101;49.438;11.098;2023-11-21T06:40:14;19.20;61.90
38237;DHT22;50101;49.438;11.098;2023-11-21T06:42:48;19.20;61.20
38237;DHT22;50101;49.438;11.098;2023-11-21T06:45:15;19.20;61.90
38237;DHT22;50101;49.438;11.098;2023-11-21T06:47:42;19.20;61.80
38237;DHT22;50101;49.438;11.098;2023-11-21T06:50:10;19.20;61.80
38237;DHT22;50101;49.438;11.098;2023-11-21T06:52:37;19.20;61.70
38237;DHT22;50101;49.438;11.098;2023-11-21T06:55:04;19.20;61.70
38237;DHT22;50101;49.438;11.098;2023-11-21T06:57:31;19.30;61.70
38237;DHT22;50101;49.438;11.098;2023-11-21T06:59:58;19.20;61.60
38237;DHT22;50101;49.438;11.098;2023-11-21T07:02:25;19.20;61.70
38237;DHT22;50101;49.438;11.098;2023-11-21T07:04:52;19.20;61.60
38237;DHT22;50101;49.438;11.098;2023-11-21T07:07:19;19.30;61.60
38237;DHT22;50101;49.438;11.098;2023-11-21T07:09:46;19.30;61.60
38237;DHT22;50101;49.438;11.098;2023-11-21T07:12:14;19.30;61.60
38237;DHT22;50101;49.438;11.098;2023-11-21T07:14:41;19.30;61.50
38237;DHT22;50101;49.438;11.098;2023-11-21T07:17:10;19.30;61.40
38237;DHT22;50101;49.438;11.098;2023-11-21T07:19:37;19.40;61.40
38237;DHT22;50101;49.438;11.098;2023-11-21T07:22:03;19.30;61.30
38237;DHT22;50101;49.438;11.098;2023-11-21T07:24:32;19.30;61.30
38237;DHT22;50101;49.438;11.098;2023-11-21T07:26:59;19.40;61.40
38237;DHT22;50101;49.438;11.098;2023-11-21T07:29:28;19.30;61.30
38237;DHT22;50101;49.438;11.098;2023-11-21T07:31:56;19.30;61.30
38237;DHT22;50101;49.438;11.098;2023-11-21T07:34:23;19.40;61.40
38237;DHT22;50101;49.438;11.098;2023-11-21T07:36:50;19.40;61.40
38237;DHT22;50101;49.438;11.098;2023-11-21T07:39:16;19.40;61.40
38237;DHT22;50101;49.438;11.098;2023-11-21T07:41:44;19.40;61.40
38237;DHT22;50101;49.438;11.098;2023-11-21T07:44:16;19.40;61.40
38237;DHT22;50101;49.438;11.098;2023-11-21T07:46:44;19.40;61.30
38237;DHT22;50101;49.438;11.098;2023-11-21T07:49:11;19.40;61.40
38237;DHT22;50101;49.438;11.098;2023-11-21T07:51:38;19.40;60.70
38237;DHT22;50101;49.438;11.098;2023-11-21T07:54:05;19.50;61.50
38237;DHT22;50101;49.438;11.098;2023-11-21T07:56:32;19.50;61.40
38237;DHT22;50101;49.438;11.098;2023-11-21T07:58:58;19.50;61.40
38237;DHT22;50101;49.438;11.098;2023-11-21T08:01:25;19.50;61.30
38237;DHT22;50101;49.438;11.098;2023-11-21T08:03:52;19.50;61.30
38237;DHT22;50101;49.438;11.098;2023-11-21T08:06:19;19.50;61.30
38237;DHT22;50101;49.438;11.098;2023-11-21T08:08:46;19.50;61.30
38237;DHT22;50101;49.438;11.098;2023-11-21T08:11:12;19.50;61.10
38237;DHT22;50101;49.438;11.098;2023-11-21T08:13:39;19.60;61.10
38237;DHT22;50101;49.438;11.098;2023-11-21T08:16:06;19.60;61.10
38237;DHT22;50101;49.438;11.098;2023-11-21T08:18:34;19.60;61.10
38237;DHT22;50101;49.438;11.098;2023-11-21T08:21:00;19.60;60.40
38237;DHT22;50101;49.438;11.098;2023-11-21T08:23:27;19.60;61.10
38237;DHT22;50101;49.438;11.098;2023-11-21T08:25:55;19.60;61.00
38237;DHT22;50101;49.438;11.098;2023-11-21T08:28:22;19.60;61.00
38237;DHT22;50101;49.438;11.098;2023-11-21T08:30:52;19.60;60.90
38237;DHT22;50101;49.438;11.098;2023-11-21T08:33:20;19.60;61.00
38237;DHT22;50101;49.438;11.098;2023-11-21T08:35:47;19.60;61.00
38237;DHT22;50101;49.438;11.098;2023-11-21T08:38:14;19.70;61.10
38237;DHT22;50101;49.438;11.098;2023-11-21T08:40:41;19.60;60.90
38237;DHT22;50101;49.438;11.098;2023-11-21T08:43:08;19.60;60.90
38237;DHT22;50101;49.438;11.098;2023-11-21T08:45:34;19.70;61.00
38237;DHT22;50101;49.438;11.098;2023-11-21T08:48:02;19.60;61.00
38237;DHT22;50101;49.438;11.098;2023-11-21T08:50:29;19.60;60.40
38237;DHT22;50101;49.438;11.098;2023-11-21T08:52:56;19.70;61.10
38237;DHT22;50101;49.438;11.098;2023-11-21T08:55:22;19.60;61.00
38237;DHT22;50101;49.438;11.098;2023-11-21T08:57:49;19.70;61.00
38237;DHT22;50101;49.438;11.098;2023-11-21T09:00:17;19.70;61.00
38237;DHT22;50101;49.438;11.098;2023-11-21T09:02:45;19.70;61.00
38237;DHT22;50101;49.438;11.098;2023-11-21T09:05:13;19.70;61.00
38237;DHT22;50101;49.438;11.098;2023-11-21T09:07:41;19.70;61.00
38237;DHT22;50101;49.438;11.098;2023-11-21T09:10:08;19.70;61.00
38237;DHT22;50101;49.438;11.098;2023-11-21T09:12:37;18.90;60.20
38237;DHT22;50101;49.438;11.098;2023-11-21T09:15:07;19.70;61.00
38237;DHT22;50101;49.438;11.098;2023-11-21T09:17:36;19.70;61.00
38237;DHT22;50101;49.438;11.098;2023-11-21T09:20:04;19.70;61.00
38237;DHT22;50101;49.438;11.098;2023-11-21T09:22:32;19.70;61.00
38237;DHT22;50101;49.438;11.098;2023-11-21T09:24:59;19.70;61.00
38237;DHT22;50101;49.438;11.098;2023-11-21T09:27:26;19.70;61.00
38237;DHT22;50101;49.438;11.098;2023-11-21T09:29:53;19.70;61.10
38237;DHT22;50101;49.438;11.098;2023-11-21T09:32:20;19.70;61.00
38237;DHT22;50101;49.438;11.098;2023-11-21T09:34:50;19.70;61.00
38237;DHT22;50101;49.438;11.098;2023-11-21T09:37:17;19.70;61.10
38237;DHT22;50101;49.438;11.098;2023-11-21T09:39:45;19.70;61.10
38237;DHT22;50101;49.438;11.098;2023-11-21T09:42:17;19.70;61.20
38237;DHT22;50101;49.438;11.098;2023-11-21T09:45:03;19.70;61.10
38237;DHT22;50101;49.438;11.098;2023-11-21T09:47:33;19.70;61.10
38237;DHT22;50101;49.438;11.098;2023-11-21T09:50:02;19.70;61.10
38237;DHT22;50101;49.438;11.098;2023-11-21T09:52:31;19.70;61.00
38237;DHT22;50101;49.438;11.098;2023-11-21T09:54:59;19.70;61.00
38237;DHT22;50101;49.438;11.098;2023-11-21T09:57:27;19.70;61.00
38237;DHT22;50101;49.438;11.098;2023-11-21T09:59:55;19.70;61.00
38237;DHT22;50101;49.438;11.098;2023-11-21T10:02:27;19.70;61.00
38237;DHT22;50101;49.438;11.098;2023-11-21T10:04:56;19.70;61.00
38237;DHT22;50101;49.438;11.098;2023-11-21T10:07:23;19.70;60.90
38237;DHT22;50101;49.438;11.098;2023-11-21T10:09:51;19.70;61.00
38237;DHT22;50101;49.438;11.098;2023-11-21T10:12:18;19.70;61.00
38237;DHT22;50101;49.438;11.098;2023-11-21T10:14:48;19.70;61.00
38237;DHT22;50101;49.438;11.098;2023-11-21T10:17:17;19.70;61.00
38237;DHT22;50101;49.438;11.098;2023-11-21T10:19:48;19.80;61.00
38237;DHT22;50101;49.438;11.098;2023-11-21T10:22:15;19.80;61.00
38237;DHT22;50101;49.438;11.098;2023-11-21T10:24:42;19.70;60.80
38237;DHT22;50101;49.438;11.098;2023-11-21T10:27:19;19.70;60.80
38237;DHT22;50101;49.438;11.098;2023-11-21T10:29:46;19.70;60.90
38237;DHT22;50101;49.438;11.098;2023-11-21T10:32:12;19.70;60.80
38237;DHT22;50101;49.438;11.098;2023-11-21T10:34:39;19.70;60.90
38237;DHT22;50101;49.438;11.098;2023-11-21T10:37:11;19.80;61.00
38237;DHT22;50101;49.438;11.098;2023-11-21T10:39:39;19.80;60.90
38237;DHT22;50101;49.438;11.098;2023-11-21T10:42:08;19.80;61.00
38237;DHT22;50101;49.438;11.098;2023-11-21T10:44:36;19.80;60.90
38237;DHT22;50101;49.438;11.098;2023-11-21T10:47:04;19.80;61.00
38237;DHT22;50101;49.438;11.098;2023-11-21T10:49:31;19.70;60.90
38237;DHT22;50101;49.438;11.098;2023-11-21T10:51:59;19.80;60.90
38237;DHT22;50101;49.438;11.098;2023-11-21T10:54:26;19.80;61.00
38237;DHT22;50101;49.438;11.098;2023-11-21T10:56:57;19.80;60.90
38237;DHT22;50101;49.438;11.098;2023-11-21T10:59:28;19.80;60.90
38237;DHT22;50101;49.438;11.098;2023-11-21T11:01:57;19.80;60.90
38237;DHT22;50101;49.438;11.098;2023-11-21T11:04:27;19.70;60.90
38237;DHT22;50101;49.438;11.098;2023-11-21T11:06:58;19.70;60.90
38237;DHT22;50101;49.438;11.098;2023-11-21T11:09:28;19.80;61.00
38237;DHT22;50101;49.438;11.098;2023-11-21T11:11:57;19.70;60.80
38237;DHT22;50101;49.438;11.098;2023-11-21T11:14:23;19.80;61.00
38237;DHT22;50101;49.438;11.098;2023-11-21T11:16:54;19.70;60.90
38237;DHT22;50101;49.438;11.098;2023-11-21T11:19:21;19.70;60.90
38237;DHT22;50101;49.438;11.098;2023-11-21T11:22:03;19.70;60.90
38237;DHT22;50101;49.438;11.098;2023-11-21T11:30:18;19.80;60.40
38237;DHT22;50101;49.438;11.098;2023-11-21T11:33:09;19.80;61.00
38237;DHT22;50101;49.438;11.098;2023-11-21T11:35:50;19.80;61.00
38237;DHT22;50101;49.438;11.098;2023-11-21T11:38:23;19.80;61.10
38237;DHT22;50101;49.438;11.098;2023-11-21T11:40:53;19.70;60.80
38237;DHT22;50101;49.438;11.098;2023-11-21T11:43:26;19.70;60.90
38237;DHT22;50101;49.438;11.098;2023-11-21T11:45:59;19.80;61.00
38237;DHT22;50101;49.438;11.098;2023-11-21T11:48:26;19.70;60.80
38237;DHT22;50101;49.438;11.098;2023-11-21T11:51:05;19.70;60.80
38237;DHT22;50101;49.438;11.098;2023-11-21T11:53:36;19.70;60.80
38237;DHT22;50101;49.438;11.098;2023-11-21T11:56:26;19.80;60.90
38237;DHT22;50101;49.438;11.098;2023-11-21T11:58:55;19.80;60.90
38237;DHT22;50101;49.438;11.098;2023-11-21T12:01:26;19.70;60.80
38237;DHT22;50101;49.438;11.098;2023-11-21T12:06:42;19.70;61.00
38237;DHT22;50101;49.438;11.098;2023-11-21T12:09:29;19.70;61.00
38237;DHT22;50101;49.438;11.098;2023-11-21T12:11:58;19.70;61.00
38237;DHT22;50101;49.438;11.098;2023-11-21T12:14:25;19.70;61.00
38237;DHT22;50101;49.438;11.098;2023-11-21T12:16:52;19.70;60.90
38237;DHT22;50101;49.438;11.098;2023-11-21T12:19:19;19.80;61.00
38237;DHT22;50101;49.438;11.098;2023-11-21T12:21:47;19.70;60.30
38237;DHT22;50101;49.438;11.098;2023-11-21T12:24:15;19.70;61.00
38237;DHT22;50101;49.438;11.098;2023-11-21T12:26:43;19.70;61.00
38237;DHT22;50101;49.438;11.098;2023-11-21T12:29:10;19.70;60.80
38237;DHT22;50101;49.438;11.098;2023-11-21T12:31:37;19.70;60.90
38237;DHT22;50101;49.438;11.098;2023-11-21T12:34:04;19.70;60.80
38237;DHT22;50101;49.438;11.098;2023-11-21T12:36:33;19.70;60.90
38237;DHT22;50101;49.438;11.098;2023-11-21T12:39:01;19.70;60.90
38237;DHT22;50101;49.438;11.098;2023-11-21T12:41:29;19.70;60.90
38237;DHT22;50101;49.438;11.098;2023-11-21T12:43:57;19.70;61.00
38237;DHT22;50101;49.438;11.098;2023-11-21T12:46:24;19.70;61.00
38237;DHT22;50101;49.438;11.098;2023-11-21T12:48:54;19.70;60.90
38237;DHT22;50101;49.438;11.098;2023-11-21T12:51:22;19.70;60.90
38237;DHT22;50101;49.438;11.098;2023-11-21T12:53:50;19.70;60.80
38237;DHT22;50101;49.438;11.098;2023-11-21T12:56:17;19.70;60.80
38237;DHT22;50101;49.438;11.098;2023-11-21T12:58:45;19.70;60.90
38237;DHT22;50101;49.438;11.098;2023-11-21T13:01:14;19.70;60.20
38237;DHT22;50101;49.438;11.098;2023-11-21T13:03:48;19.80;60.90
38237;DHT22;50101;49.438;11.098;2023-11-21T13:06:17;19.70;60.80
38237;DHT22;50101;49.438;11.098;2023-11-21T13:08:45;19.70;60.80
38237;DHT22;50101;49.438;11.098;2023-11-21T13:11:12;19.70;60.80
38237;DHT22;50101;49.438;11.098;2023-11-21T13:13:42;19.70;60.80
38237;DHT22;50101;49.438;11.098;2023-11-21T13:16:11;19.70;60.80
38237;DHT22;50101;49.438;11.098;2023-11-21T13:18:39;19.70;60.80
38237;DHT22;50101;49.438;11.098;2023-11-21T13:21:08;19.70;60.90
38237;DHT22;50101;49.438;11.098;2023-11-21T13:23:43;19.70;60.90
38237;DHT22;50101;49.438;11.098;2023-11-21T13:26:13;19.70;60.90
38237;DHT22;50101;49.438;11.098;2023-11-21T13:28:41;19.70;60.80
38237;DHT22;50101;49.438;11.098;2023-11-21T13:31:12;19.70;60.80
38237;DHT22;50101;49.438;11.098;2023-11-21T13:33:53;19.70;60.80
38237;DHT22;50101;49.438;11.098;2023-11-21T13:36:25;19.70;60.80
38237;DHT22;50101;49.438;11.098;2023-11-21T13:38:52;19.70;60.80
38237;DHT22;50101;49.438;11.098;2023-11-21T13:41:20;19.70;60.80
38237;DHT22;50101;49.438;11.098;2023-11-21T13:43:48;19.70;60.90
38237;DHT22;50101;49.438;11.098;2023-11-21T13:46:25;19.70;60.90
38237;DHT22;50101;49.438;11.098;2023-11-21T13:48:52;19.70;60.80
38237;DHT22;50101;49.438;11.098;2023-11-21T13:51:23;19.70;60.60
38237;DHT22;50101;49.438;11.098;2023-11-21T13:53:58;19.70;60.60
38237;DHT22;50101;49.438;11.098;2023-11-21T13:56:25;19.80;60.50
38237;DHT22;50101;49.438;11.098;2023-11-21T13:58:54;19.90;60.50
38237;DHT22;50101;49.438;11.098;2023-11-21T14:01:23;19.90;59.80
38237;DHT22;50101;49.438;11.098;2023-11-21T14:06:30;19.90;60.30
38237;DHT22;50101;49.438;11.098;2023-11-21T14:09:06;19.90;60.30
38237;DHT22;50101;49.438;11.098;2023-11-21T14:11:34;19.90;60.40
38237;DHT22;50101;49.438;11.098;2023-11-21T14:14:12;19.90;60.50
38237;DHT22;50101;49.438;11.098;2023-11-21T14:16:38;19.90;60.60
38237;DHT22;50101;49.438;11.098;2023-11-21T14:19:05;19.80;60.50
38237;DHT22;50101;49.438;11.098;2023-11-21T14:21:45;19.80;60.60
38237;DHT22;50101;49.438;11.098;2023-11-21T14:24:15;19.80;60.70
38237;DHT22;50101;49.438;11.098;2023-11-21T14:26:46;19.80;60.80
38237;DHT22;50101;49.438;11.098;2023-11-21T14:29:13;19.80;60.80
38237;DHT22;50101;49.438;11.098;2023-11-21T14:31:47;19.80;60.80
38237;DHT22;50101;49.438;11.098;2023-11-21T14:34:14;19.80;60.90
38237;DHT22;50101;49.438;11.098;2023-11-21T14:36:46;19.70;60.80
38237;DHT22;50101;49.438;11.098;2023-11-21T14:39:12;19.70;60.90
38237;DHT22;50101;49.438;11.098;2023-11-21T14:41:57;19.70;60.40
38237;DHT22;50101;49.438;11.098;2023-11-21T14:44:24;19.70;61.00
38237;DHT22;50101;49.438;11.098;2023-11-21T14:46:54;19.70;61.00
38237;DHT22;50101;49.438;11.098;2023-11-21T14:49:24;19.70;61.00
38237;DHT22;50101;49.438;11.098;2023-11-21T14:51:54;19.70;61.00
38237;DHT22;50101;49.438;11.098;2023-11-21T14:54:31;19.70;61.00
38237;DHT22;50101;49.438;11.098;2023-11-21T14:57:09;19.70;61.10
38237;DHT22;50101;49.438;11.098;2023-11-21T14:59:46;19.70;60.40
38237;DHT22;50101;49.438;11.098;2023-11-21T15:02:19;19.70;61.10
38237;DHT22;50101;49.438;11.098;2023-11-21T15:05:10;19.70;61.10
38237;DHT22;50101;49.438;11.098;2023-11-21T15:07:44;19.70;61.20
38237;DHT22;50101;49.438;11.098;2023-11-21T15:10:12;19.70;61.20
38237;DHT22;50101;49.438;11.098;2023-11-21T15:12:42;19.70;61.20
38237;DHT22;50101;49.438;11.098;2023-11-21T15:15:10;19.60;61.10
38237;DHT22;50101;49.438;11.098;2023-11-21T15:17:37;19.60;61.10
38237;DHT22;50101;49.438;11.098;2023-11-21T15:20:06;19.70;61.20
38237;DHT22;50101;49.438;11.098;2023-11-21T15:22:35;19.60;61.10
38237;DHT22;50101;49.438;11.098;2023-11-21T15:25:02;19.70;61.20
38237;DHT22;50101;49.438;11.098;2023-11-21T15:27:34;19.70;61.20
38237;DHT22;50101;49.438;11.098;2023-11-21T15:30:02;19.60;61.10
38237;DHT22;50101;49.438;11.098;2023-11-21T15:32:29;19.60;61.10
38237;DHT22;50101;49.438;11.098;2023-11-21T15:34:56;19.60;61.10